Time;durP1;ratioP1;P1;durP2;ratioP2;P2;SDS_P1;SDS_P2;PMS_P1;PMS_P2;Temp;Humidity;BMP_temperature;BMP_pressure;BME280_temperature;BME280_humidity;BME280_pressure;Samples;Min_cycle;Max_cycle;Signal;HPM_P1;HPM_P2
2022/07/06 00:02:15;;;;;;;6.33;3.43;;;;;;;;;;4958935;28;20663;-82
2022/07/06 00:04:44;;;;;;;8.13;3.73;;;;;;;;;;4967041;28;20229;-83
2022/07/06 00:07:11;;;;;;;6.10;3.27;;;;;;;;;;4966402;28;20214;-83
2022/07/06 00:09:39;;;;;;;5.23;3.23;;;;;;;;;;4967512;28;20273;-82
2022/07/06 00:12:06;;;;;;;5.97;3.70;;;;;;;;;;4971210;28;20707;-83
2022/07/06 00:14:34;;;;;;;8.97;3.47;;;;;;;;;;4969571;28;20237;-82
2022/07/06 00:17:01;;;;;;;7.27;3.27;;;;;;;;;;4969127;28;20214;-82
2022/07/06 00:19:29;;;;;;;6.10;3.17;;;;;;;;;;4963845;28;20215;-83
2022/07/06 00:21:58;;;;;;;6.57;3.37;;;;;;;;;;4960439;28;20198;-82
2022/07/06 00:24:26;;;;;;;6.50;3.37;;;;;;;;;;4958279;28;20596;-84
2022/07/06 00:26:53;;;;;;;5.40;3.60;;;;;;;;;;4960675;28;20214;-83
2022/07/06 00:29:21;;;;;;;4.87;3.17;;;;;;;;;;4960460;28;20236;-82
2022/07/06 00:31:48;;;;;;;7.67;3.33;;;;;;;;;;4960333;28;20575;-83
2022/07/06 00:34:15;;;;;;;6.27;3.50;;;;;;;;;;4959697;28;20254;-82
2022/07/06 00:36:43;;;;;;;4.93;3.47;;;;;;;;;;4953387;28;20800;-83
2022/07/06 00:39:12;;;;;;;5.87;3.93;;;;;;;;;;4956860;28;20211;-83
2022/07/06 00:41:39;;;;;;;9.77;3.57;;;;;;;;;;4960539;28;20290;-83
2022/07/06 00:44:09;;;;;;;11.70;3.70;;;;;;;;;;4955054;28;20226;-83
2022/07/06 00:46:38;;;;;;;7.33;3.43;;;;;;;;;;4957865;28;20304;-83
2022/07/06 00:50:13;;;;;;;6.03;3.70;;;;;;;;;;4956309;28;20293;-82
2022/07/06 00:51:53;;;;;;;6.83;3.90;;;;;;;;;;4955480;28;20225;-82
2022/07/06 00:54:22;;;;;;;5.60;3.60;;;;;;;;;;4950322;28;20234;-81
2022/07/06 00:56:50;;;;;;;10.10;4.30;;;;;;;;;;4957241;28;20655;-83
2022/07/06 00:59:18;;;;;;;6.67;3.63;;;;;;;;;;4958164;28;20645;-81
2022/07/06 01:01:46;;;;;;;7.97;3.90;;;;;;;;;;4957452;28;20207;-83
2022/07/06 01:04:13;;;;;;;10.60;3.80;;;;;;;;;;4951747;28;20316;-81
2022/07/06 01:06:41;;;;;;;6.83;3.73;;;;;;;;;;4951879;28;20295;-82
2022/07/06 01:09:08;;;;;;;8.93;3.37;;;;;;;;;;4952344;28;20222;-82
2022/07/06 01:11:47;;;;;;;8.27;4.00;;;;;;;;;;4951515;28;20821;-83
2022/07/06 01:14:17;;;;;;;7.50;3.80;;;;;;;;;;4949005;28;20221;-82
2022/07/06 01:16:56;;;;;;;8.10;4.00;;;;;;;;;;4954132;28;20828;-83
2022/07/06 01:19:24;;;;;;;6.90;3.47;;;;;;;;;;4955387;28;20245;-83
2022/07/06 01:21:53;;;;;;;7.33;3.73;;;;;;;;;;4952246;28;20195;-86
2022/07/06 01:24:20;;;;;;;6.30;3.50;;;;;;;;;;4958112;28;20222;-82
2022/07/06 01:27:01;;;;;;;7.80;3.60;;;;;;;;;;4970579;28;20213;-81
2022/07/06 01:29:29;;;;;;;7.53;3.27;;;;;;;;;;4966792;28;20203;-83
2022/07/06 01:31:56;;;;;;;4.93;3.50;;;;;;;;;;4955464;28;20230;-83
2022/07/06 01:34:23;;;;;;;6.10;3.50;;;;;;;;;;4953178;28;20274;-82
2022/07/06 01:36:52;;;;;;;4.80;3.37;;;;;;;;;;4947725;28;20865;-82
2022/07/06 01:39:20;;;;;;;3.50;3.13;;;;;;;;;;4954510;28;20573;-82
2022/07/06 01:41:47;;;;;;;7.70;3.83;;;;;;;;;;4952065;28;20210;-82
2022/07/06 01:44:15;;;;;;;6.80;3.17;;;;;;;;;;4957045;28;21535;-82
2022/07/06 01:46:42;;;;;;;7.37;3.73;;;;;;;;;;4955344;28;20554;-83
2022/07/06 01:49:09;;;;;;;7.33;3.60;;;;;;;;;;4954674;28;20230;-81
2022/07/06 01:51:37;;;;;;;6.23;3.40;;;;;;;;;;4958491;28;20229;-82
2022/07/06 01:54:06;;;;;;;5.73;3.50;;;;;;;;;;4953482;28;20253;-85
2022/07/06 01:56:33;;;;;;;6.77;3.30;;;;;;;;;;4952337;28;20209;-82
2022/07/06 01:59:02;;;;;;;5.97;3.50;;;;;;;;;;4952040;28;20245;-82
2022/07/06 02:01:29;;;;;;;8.20;3.33;;;;;;;;;;4953663;28;20209;-81
2022/07/06 02:03:57;;;;;;;5.80;3.30;;;;;;;;;;4950753;28;20711;-81
2022/07/06 02:06:25;;;;;;;6.67;3.20;;;;;;;;;;4951188;28;20278;-83
2022/07/06 02:08:55;;;;;;;11.17;2.93;;;;;;;;;;4955695;28;20309;-82
2022/07/06 02:11:27;;;;;;;8.10;3.27;;;;;;;;;;4950879;28;20211;-83
2022/07/06 02:13:57;;;;;;;5.90;3.27;;;;;;;;;;4953208;28;20235;-83
2022/07/06 02:16:25;;;;;;;7.73;3.93;;;;;;;;;;4956995;28;20662;-83
2022/07/06 02:18:52;;;;;;;6.27;3.10;;;;;;;;;;4953347;28;20210;-86
2022/07/06 02:21:20;;;;;;;6.43;3.50;;;;;;;;;;4955975;28;20229;-83
2022/07/06 02:23:47;;;;;;;4.67;3.40;;;;;;;;;;4956522;28;20221;-83
2022/07/06 02:26:15;;;;;;;5.97;3.50;;;;;;;;;;4958861;28;20208;-82
2022/07/06 02:28:45;;;;;;;11.17;3.77;;;;;;;;;;4957558;28;20274;-84
2022/07/06 02:31:13;;;;;;;7.67;3.50;;;;;;;;;;4956934;28;20237;-82
2022/07/06 02:33:40;;;;;;;3.70;3.00;;;;;;;;;;4953485;28;20233;-83
2022/07/06 02:36:08;;;;;;;7.20;3.10;;;;;;;;;;4961790;28;20205;-82
2022/07/06 02:38:36;;;;;;;5.80;3.60;;;;;;;;;;4961323;28;20202;-83
2022/07/06 02:41:07;;;;;;;6.27;3.10;;;;;;;;;;4957216;28;21169;-82
2022/07/06 02:43:37;;;;;;;6.33;3.43;;;;;;;;;;4956961;28;20262;-82
2022/07/06 02:46:06;;;;;;;4.37;3.00;;;;;;;;;;4961520;28;21504;-82
2022/07/06 02:48:34;;;;;;;5.53;3.27;;;;;;;;;;4960342;28;20202;-82
2022/07/06 02:51:01;;;;;;;11.57;3.37;;;;;;;;;;4956683;28;20258;-83
2022/07/06 02:53:28;;;;;;;8.57;3.50;;;;;;;;;;4959475;28;20249;-81
2022/07/06 02:55:56;;;;;;;5.70;3.33;;;;;;;;;;4960548;28;20796;-84
2022/07/06 02:58:23;;;;;;;6.80;3.20;;;;;;;;;;4965353;28;20210;-83
2022/07/06 03:00:51;;;;;;;6.03;3.23;;;;;;;;;;4961556;28;20203;-82
2022/07/06 03:03:22;;;;;;;5.87;3.50;;;;;;;;;;4957438;28;20347;-84
2022/07/06 03:05:53;;;;;;;6.57;3.13;;;;;;;;;;4960970;28;20205;-82
2022/07/06 03:08:20;;;;;;;6.13;3.13;;;;;;;;;;4961837;28;20199;-84
2022/07/06 03:10:48;;;;;;;4.40;3.00;;;;;;;;;;4963818;28;20226;-85
2022/07/06 03:13:15;;;;;;;5.37;3.20;;;;;;;;;;4958488;28;20317;-84
2022/07/06 03:15:42;;;;;;;6.67;3.20;;;;;;;;;;4966202;28;20210;-81
2022/07/06 03:18:10;;;;;;;6.00;3.53;;;;;;;;;;4964847;28;20206;-83
2022/07/06 03:20:41;;;;;;;6.33;3.37;;;;;;;;;;4961592;28;20630;-82
2022/07/06 03:23:08;;;;;;;5.77;3.40;;;;;;;;;;4967366;28;20307;-81
2022/07/06 03:25:36;;;;;;;4.40;3.10;;;;;;;;;;4963292;28;20411;-82
2022/07/06 03:28:03;;;;;;;8.57;3.10;;;;;;;;;;4963617;28;20217;-82
2022/07/06 03:30:31;;;;;;;10.43;3.30;;;;;;;;;;4966383;28;20195;-82
2022/07/06 03:32:58;;;;;;;9.33;3.27;;;;;;;;;;4968133;28;20234;-80
2022/07/06 03:35:26;;;;;;;11.97;3.17;;;;;;;;;;4966485;28;20218;-82
2022/07/06 03:37:55;;;;;;;15.43;3.67;;;;;;;;;;4970606;28;20236;-81
2022/07/06 03:40:22;;;;;;;11.57;3.47;;;;;;;;;;4973249;28;20582;-82
2022/07/06 03:42:50;;;;;;;13.13;3.87;;;;;;;;;;4970672;28;20225;-83
2022/07/06 03:45:17;;;;;;;8.33;3.13;;;;;;;;;;4970033;28;20222;-82
2022/07/06 03:47:47;;;;;;;8.23;3.23;;;;;;;;;;4962324;28;20222;-81
2022/07/06 03:50:14;;;;;;;6.83;3.50;;;;;;;;;;4966275;28;20206;-83
2022/07/06 03:53:12;;;;;;;7.93;3.43;;;;;;;;;;4967516;28;20226;-83
2022/07/06 03:55:41;;;;;;;7.80;3.00;;;;;;;;;;4960348;28;20206;-81
2022/07/06 03:58:08;;;;;;;17.23;3.47;;;;;;;;;;4959041;28;20238;-82
2022/07/06 04:00:35;;;;;;;7.13;3.40;;;;;;;;;;4967645;28;20206;-83
2022/07/06 04:03:03;;;;;;;7.07;3.07;;;;;;;;;;4959120;28;20222;-83
2022/07/06 04:05:30;;;;;;;6.00;3.10;;;;;;;;;;4965292;28;20230;-83
2022/07/06 04:07:57;;;;;;;4.53;2.50;;;;;;;;;;4959946;28;20233;-83
2022/07/06 04:10:25;;;;;;;10.87;3.90;;;;;;;;;;4964884;28;20240;-83
2022/07/06 04:12:53;;;;;;;6.00;3.20;;;;;;;;;;4963925;28;20244;-81
2022/07/06 04:15:21;;;;;;;5.57;3.10;;;;;;;;;;4963348;28;20234;-80
2022/07/06 04:17:55;;;;;;;10.30;3.20;;;;;;;;;;4958563;28;20800;-81
2022/07/06 04:20:23;;;;;;;11.33;3.40;;;;;;;;;;4961217;28;20269;-81
2022/07/06 04:22:51;;;;;;;8.97;3.50;;;;;;;;;;4960696;28;20224;-81
2022/07/06 04:25:18;;;;;;;10.97;3.40;;;;;;;;;;4954103;28;20203;-80
2022/07/06 04:27:45;;;;;;;16.57;3.23;;;;;;;;;;4956488;28;20619;-82
2022/07/06 04:30:15;;;;;;;13.33;3.20;;;;;;;;;;4965097;28;20222;-83
2022/07/06 04:32:42;;;;;;;14.53;3.20;;;;;;;;;;4958671;28;20234;-82
2022/07/06 04:35:13;;;;;;;17.17;3.33;;;;;;;;;;4968469;28;20214;-81
2022/07/06 04:37:41;;;;;;;13.70;2.77;;;;;;;;;;4959621;28;20202;-82
2022/07/06 04:40:09;;;;;;;6.70;2.57;;;;;;;;;;4961001;28;20262;-82
2022/07/06 04:42:36;;;;;;;7.23;2.70;;;;;;;;;;4956636;28;20199;-81
2022/07/06 04:45:03;;;;;;;9.60;2.80;;;;;;;;;;4956605;28;20655;-83
2022/07/06 04:47:32;;;;;;;7.47;2.90;;;;;;;;;;4959696;28;20293;-82
2022/07/06 04:49:59;;;;;;;5.40;2.73;;;;;;;;;;4960743;28;20894;-82
2022/07/06 04:52:38;;;;;;;7.70;2.63;;;;;;;;;;4963783;28;20230;-82
2022/07/06 04:55:06;;;;;;;6.60;2.77;;;;;;;;;;4960703;28;20210;-81
2022/07/06 04:57:33;;;;;;;4.23;2.07;;;;;;;;;;4962045;28;20220;-82
2022/07/06 05:00:00;;;;;;;5.47;2.50;;;;;;;;;;4959756;28;20306;-83
2022/07/06 05:02:28;;;;;;;5.37;2.47;;;;;;;;;;4962457;28;20225;-82
2022/07/06 05:04:59;;;;;;;5.33;2.20;;;;;;;;;;4961358;28;20210;-81
2022/07/06 05:07:29;;;;;;;4.60;2.30;;;;;;;;;;4952456;28;20206;-84
2022/07/06 05:09:56;;;;;;;5.87;1.90;;;;;;;;;;4961167;28;20248;-83
2022/07/06 05:12:24;;;;;;;6.93;2.40;;;;;;;;;;4962269;28;20215;-81
2022/07/06 05:14:51;;;;;;;5.17;2.20;;;;;;;;;;4960485;28;20263;-82
2022/07/06 05:17:20;;;;;;;3.80;2.00;;;;;;;;;;4956085;28;20210;-80
2022/07/06 05:19:49;;;;;;;7.43;2.17;;;;;;;;;;4959013;28;20338;-83
2022/07/06 05:22:18;;;;;;;5.20;2.10;;;;;;;;;;4959900;28;20230;-83
2022/07/06 05:24:46;;;;;;;6.27;2.17;;;;;;;;;;4961608;28;20245;-82
2022/07/06 05:27:13;;;;;;;3.10;1.73;;;;;;;;;;4957933;28;20242;-82
2022/07/06 05:29:41;;;;;;;7.20;1.80;;;;;;;;;;4959198;28;20205;-83
2022/07/06 05:32:11;;;;;;;5.07;2.17;;;;;;;;;;4959909;28;20753;-81
2022/07/06 05:34:41;;;;;;;5.93;1.90;;;;;;;;;;4967130;28;20802;-81
2022/07/06 05:37:08;;;;;;;3.67;2.10;;;;;;;;;;4963814;28;20214;-82
2022/07/06 05:39:43;;;;;;;3.67;2.10;;;;;;;;;;4962110;28;20194;-80
2022/07/06 05:42:11;;;;;;;4.60;2.07;;;;;;;;;;4963503;28;20210;-81
2022/07/06 05:44:38;;;;;;;6.33;2.13;;;;;;;;;;4963084;28;20291;-82
2022/07/06 05:52:35;;;;;;;4.37;2.00;;;;;;;;;;4963442;28;20224;-82
2022/07/06 05:55:05;;;;;;;7.00;2.07;;;;;;;;;;4963255;28;20207;-82
2022/07/06 05:57:32;;;;;;;4.90;2.33;;;;;;;;;;4962082;28;20213;-82
2022/07/06 06:00:02;;;;;;;4.60;2.20;;;;;;;;;;4963271;28;20214;-83
2022/07/06 06:02:42;;;;;;;4.77;2.00;;;;;;;;;;4964374;28;20255;-82
2022/07/06 06:05:15;;;;;;;6.53;2.20;;;;;;;;;;4962790;28;20256;-81
2022/07/06 06:07:43;;;;;;;4.13;1.80;;;;;;;;;;4962744;28;20234;-81
2022/07/06 06:10:13;;;;;;;3.93;1.87;;;;;;;;;;4967170;28;20245;-82
2022/07/06 06:12:41;;;;;;;6.97;1.97;;;;;;;;;;4965010;28;20224;-82
2022/07/06 06:15:09;;;;;;;4.73;1.87;;;;;;;;;;4960667;28;20332;-81
2022/07/06 06:17:38;;;;;;;6.83;1.83;;;;;;;;;;4964010;28;20242;-81
2022/07/06 06:20:06;;;;;;;4.70;2.00;;;;;;;;;;4968143;28;20222;-81
2022/07/06 06:22:33;;;;;;;4.60;2.20;;;;;;;;;;4962774;28;20210;-81
2022/07/06 06:25:01;;;;;;;4.33;2.10;;;;;;;;;;4965620;28;20266;-81
2022/07/06 06:27:29;;;;;;;7.07;1.80;;;;;;;;;;4964272;28;20201;-80
2022/07/06 06:29:57;;;;;;;3.80;1.77;;;;;;;;;;4962130;28;20217;-82
2022/07/06 06:32:24;;;;;;;5.03;1.90;;;;;;;;;;4963812;28;20226;-82
2022/07/06 06:34:52;;;;;;;4.20;2.00;;;;;;;;;;4965822;28;20230;-82
2022/07/06 06:37:21;;;;;;;3.23;1.77;;;;;;;;;;4966196;28;20212;-82
2022/07/06 06:39:49;;;;;;;4.50;1.70;;;;;;;;;;4967248;28;20213;-82
2022/07/06 06:42:16;;;;;;;3.37;1.97;;;;;;;;;;4964272;28;20219;-83
2022/07/06 06:44:45;;;;;;;4.53;1.90;;;;;;;;;;4971121;28;20229;-83
2022/07/06 06:47:12;;;;;;;3.70;1.30;;;;;;;;;;4965353;28;20213;-83
2022/07/06 06:49:47;;;;;;;2.90;1.50;;;;;;;;;;4970304;28;20218;-83
2022/07/06 06:52:14;;;;;;;5.80;1.53;;;;;;;;;;4962373;28;20211;-83
2022/07/06 06:54:42;;;;;;;5.20;1.97;;;;;;;;;;4964596;28;20218;-84
2022/07/06 06:57:09;;;;;;;4.83;1.67;;;;;;;;;;4968517;28;20236;-84
2022/07/06 06:59:37;;;;;;;7.03;2.00;;;;;;;;;;4968269;28;20218;-83
2022/07/06 07:02:06;;;;;;;4.83;1.83;;;;;;;;;;4961983;28;20217;-82
2022/07/06 07:04:33;;;;;;;4.90;1.40;;;;;;;;;;4966923;28;20230;-83
2022/07/06 07:07:01;;;;;;;4.87;1.90;;;;;;;;;;4967138;28;20242;-82
2022/07/06 07:09:28;;;;;;;3.70;1.60;;;;;;;;;;4967542;28;20209;-82
2022/07/06 07:11:56;;;;;;;4.43;1.57;;;;;;;;;;4973857;28;20225;-82
2022/07/06 07:14:23;;;;;;;5.77;1.90;;;;;;;;;;4972735;28;20218;-82
2022/07/06 07:16:50;;;;;;;5.57;1.60;;;;;;;;;;4973426;28;20210;-81
2022/07/06 07:19:19;;;;;;;3.80;1.80;;;;;;;;;;4970971;28;20214;-81
2022/07/06 07:21:49;;;;;;;3.43;1.60;;;;;;;;;;4964090;28;20210;-82
2022/07/06 07:24:16;;;;;;;4.87;1.63;;;;;;;;;;4966102;28;20234;-81
2022/07/06 07:26:46;;;;;;;6.17;1.50;;;;;;;;;;4962423;28;20222;-83
2022/07/06 07:29:14;;;;;;;4.70;1.77;;;;;;;;;;4968078;28;20243;-81
2022/07/06 07:31:41;;;;;;;5.57;1.70;;;;;;;;;;4960082;28;20233;-80
2022/07/06 07:34:09;;;;;;;5.57;1.50;;;;;;;;;;4967578;28;20230;-82
2022/07/06 07:36:37;;;;;;;2.40;1.17;;;;;;;;;;4966427;28;20203;-81
2022/07/06 07:39:05;;;;;;;6.70;1.70;;;;;;;;;;4962884;28;20243;-82
2022/07/06 07:41:32;;;;;;;4.97;1.53;;;;;;;;;;4957890;28;20206;-82
2022/07/06 07:44:00;;;;;;;3.93;1.30;;;;;;;;;;4956895;28;20241;-81
2022/07/06 07:46:27;;;;;;;4.63;1.43;;;;;;;;;;4961023;28;20207;-82
2022/07/06 07:48:54;;;;;;;4.10;1.23;;;;;;;;;;4960306;28;20217;-82
2022/07/06 07:51:22;;;;;;;5.03;1.23;;;;;;;;;;4957526;28;20233;-82
2022/07/06 07:53:51;;;;;;;2.03;1.10;;;;;;;;;;4957576;28;20777;-82
2022/07/06 07:56:18;;;;;;;3.77;1.33;;;;;;;;;;4956158;28;20210;-83
2022/07/06 08:01:27;;;;;;;3.07;1.10;;;;;;;;;;4959957;28;20194;-83
2022/07/06 08:03:54;;;;;;;3.40;1.27;;;;;;;;;;4957794;28;20330;-81
2022/07/06 08:06:21;;;;;;;3.93;1.20;;;;;;;;;;4959422;28;20284;-82
2022/07/06 08:08:50;;;;;;;3.67;1.43;;;;;;;;;;4964784;28;20229;-83
2022/07/06 08:11:18;;;;;;;3.83;1.60;;;;;;;;;;4963959;28;20275;-82
2022/07/06 08:13:48;;;;;;;5.53;1.87;;;;;;;;;;4961798;28;20226;-83
2022/07/06 08:16:16;;;;;;;3.97;1.20;;;;;;;;;;4962443;28;20274;-83
2022/07/06 08:18:43;;;;;;;5.77;1.40;;;;;;;;;;4964517;28;20298;-84
2022/07/06 08:21:11;;;;;;;3.90;1.53;;;;;;;;;;4962502;28;20593;-84
2022/07/06 08:23:38;;;;;;;3.30;1.30;;;;;;;;;;4960815;28;20235;-84
2022/07/06 08:26:07;;;;;;;2.60;1.20;;;;;;;;;;4961208;28;20286;-83
2022/07/06 08:28:34;;;;;;;3.50;1.20;;;;;;;;;;4960343;28;20221;-82
2022/07/06 08:31:01;;;;;;;2.90;1.27;;;;;;;;;;4956749;28;20203;-83
2022/07/06 08:33:29;;;;;;;4.73;1.30;;;;;;;;;;4956766;28;20223;-83
2022/07/06 08:35:56;;;;;;;4.10;1.40;;;;;;;;;;4962946;28;20206;-83
2022/07/06 08:38:27;;;;;;;4.50;1.30;;;;;;;;;;4954078;28;20298;-83
2022/07/06 08:40:54;;;;;;;2.57;1.10;;;;;;;;;;4957748;28;20219;-84
2022/07/06 08:43:24;;;;;;;4.10;1.07;;;;;;;;;;4956750;28;20320;-83
2022/07/06 08:45:52;;;;;;;2.40;0.93;;;;;;;;;;4959017;28;20226;-82
2022/07/06 08:48:19;;;;;;;1.50;0.90;;;;;;;;;;4958646;28;20206;-83
2022/07/06 08:50:47;;;;;;;4.97;1.00;;;;;;;;;;4959688;28;20213;-83
2022/07/06 08:53:14;;;;;;;3.43;0.80;;;;;;;;;;4960720;28;20317;-83
2022/07/06 08:55:42;;;;;;;4.20;1.20;;;;;;;;;;4960864;28;20689;-84
2022/07/06 08:58:10;;;;;;;2.60;1.10;;;;;;;;;;4959290;28;20209;-83
2022/07/06 09:00:39;;;;;;;1.90;1.20;;;;;;;;;;4958967;28;20266;-83
2022/07/06 09:03:06;;;;;;;2.63;1.13;;;;;;;;;;4958737;28;20238;-82
2022/07/06 09:08:38;;;;;;;6.70;1.00;;;;;;;;;;4956742;28;20198;-83
2022/07/06 09:11:06;;;;;;;3.73;1.10;;;;;;;;;;4957710;28;20214;-83
2022/07/06 09:13:33;;;;;;;2.30;1.00;;;;;;;;;;4949623;28;20257;-83
2022/07/06 09:16:12;;;;;;;3.40;1.07;;;;;;;;;;4959538;28;20551;-83
2022/07/06 09:18:41;;;;;;;2.30;0.90;;;;;;;;;;4956952;28;20202;-82
2022/07/06 09:21:08;;;;;;;6.70;1.47;;;;;;;;;;4950756;28;20226;-82
2022/07/06 09:23:38;;;;;;;3.17;1.23;;;;;;;;;;4955285;28;20637;-83
2022/07/06 09:26:07;;;;;;;5.17;1.13;;;;;;;;;;4957014;28;20214;-83
2022/07/06 09:28:44;;;;;;;5.03;1.50;;;;;;;;;;4955661;28;20655;-82
2022/07/06 09:31:13;;;;;;;3.43;1.40;;;;;;;;;;4956603;28;20249;-81
2022/07/06 09:33:40;;;;;;;3.23;1.20;;;;;;;;;;4960316;28;20284;-80
2022/07/06 09:36:08;;;;;;;7.70;1.30;;;;;;;;;;4958669;28;20269;-82
2022/07/06 09:38:35;;;;;;;5.87;1.20;;;;;;;;;;4961346;28;20435;-81
2022/07/06 09:41:03;;;;;;;6.37;1.23;;;;;;;;;;4958973;28;20201;-81
2022/07/06 09:43:33;;;;;;;7.60;1.10;;;;;;;;;;4956874;28;20762;-81
2022/07/06 09:46:00;;;;;;;3.47;1.30;;;;;;;;;;4958208;28;20315;-82
2022/07/06 09:48:30;;;;;;;5.00;1.33;;;;;;;;;;4958538;28;20221;-81
2022/07/06 09:50:58;;;;;;;6.27;1.23;;;;;;;;;;4954018;28;20218;-81
2022/07/06 09:53:27;;;;;;;2.83;1.10;;;;;;;;;;4957793;28;20233;-81
2022/07/06 09:55:58;;;;;;;4.00;1.20;;;;;;;;;;4953193;28;20230;-82
2022/07/06 09:58:26;;;;;;;3.37;1.10;;;;;;;;;;4955724;28;20237;-81
2022/07/06 10:00:54;;;;;;;6.73;1.00;;;;;;;;;;4960391;28;20452;-82
2022/07/06 10:03:21;;;;;;;4.43;1.03;;;;;;;;;;4960163;28;20233;-82
2022/07/06 10:05:50;;;;;;;2.57;1.10;;;;;;;;;;4967384;28;20218;-82
2022/07/06 10:08:19;;;;;;;2.47;1.10;;;;;;;;;;4957648;28;20206;-82
2022/07/06 10:10:48;;;;;;;1.57;0.77;;;;;;;;;;4959431;28;20288;-81
2022/07/06 10:13:16;;;;;;;2.67;0.90;;;;;;;;;;4963033;28;20249;-81
2022/07/06 10:15:44;;;;;;;2.70;1.03;;;;;;;;;;4942356;28;20851;-81
2022/07/06 10:18:12;;;;;;;3.70;1.27;;;;;;;;;;4957098;28;20211;-80
2022/07/06 10:20:40;;;;;;;3.17;1.03;;;;;;;;;;4959131;28;20269;-82
2022/07/06 10:23:11;;;;;;;1.77;1.20;;;;;;;;;;4960457;28;20230;-82
2022/07/06 10:25:39;;;;;;;2.93;1.13;;;;;;;;;;4960986;28;20539;-83
2022/07/06 10:28:13;;;;;;;2.63;1.23;;;;;;;;;;4958469;28;20250;-82
2022/07/06 10:30:41;;;;;;;4.10;1.23;;;;;;;;;;4964266;28;20284;-81
2022/07/06 10:33:09;;;;;;;2.37;0.90;;;;;;;;;;4959332;28;20788;-83
2022/07/06 10:35:36;;;;;;;2.63;1.03;;;;;;;;;;4958214;28;20226;-83
2022/07/06 10:38:09;;;;;;;6.67;1.20;;;;;;;;;;4957643;28;20229;-82
2022/07/06 10:43:34;;;;;;;3.83;1.40;;;;;;;;;;4943618;28;20229;-81
2022/07/06 10:46:07;;;;;;;2.40;1.10;;;;;;;;;;4968679;28;20221;-82
2022/07/06 10:48:37;;;;;;;2.73;1.13;;;;;;;;;;4962655;28;20214;-83
2022/07/06 10:51:05;;;;;;;4.43;1.20;;;;;;;;;;4966452;28;20215;-83
2022/07/06 10:53:35;;;;;;;2.80;1.00;;;;;;;;;;4962103;28;20430;-82
2022/07/06 10:56:04;;;;;;;2.57;1.03;;;;;;;;;;4962690;28;20272;-84
2022/07/06 10:58:39;;;;;;;3.93;1.10;;;;;;;;;;4961146;28;20237;-82
2022/07/06 11:01:07;;;;;;;2.83;1.10;;;;;;;;;;4964008;28;20217;-83
2022/07/06 11:03:35;;;;;;;2.43;1.13;;;;;;;;;;4962660;28;20278;-82
2022/07/06 11:06:04;;;;;;;4.17;1.40;;;;;;;;;;4961973;28;20233;-83
2022/07/06 11:08:52;;;;;;;4.10;1.10;;;;;;;;;;4963821;28;20217;-82
2022/07/06 11:11:20;;;;;;;4.10;0.90;;;;;;;;;;4962957;28;20214;-82
2022/07/06 11:13:52;;;;;;;3.00;1.00;;;;;;;;;;4954140;28;20234;-83
2022/07/06 11:16:27;;;;;;;3.97;1.30;;;;;;;;;;4954754;28;20331;-83
2022/07/06 11:19:01;;;;;;;3.80;1.10;;;;;;;;;;4956232;28;20214;-82
2022/07/06 11:21:36;;;;;;;4.93;1.10;;;;;;;;;;4957991;28;20213;-81
2022/07/06 11:24:06;;;;;;;2.90;1.20;;;;;;;;;;4957842;28;20222;-81
2022/07/06 11:26:35;;;;;;;2.20;1.20;;;;;;;;;;4954027;28;20222;-81
2022/07/06 11:29:04;;;;;;;2.50;1.17;;;;;;;;;;4954795;28;20218;-81
2022/07/06 11:31:32;;;;;;;2.37;1.17;;;;;;;;;;4952860;28;20210;-82
2022/07/06 11:33:59;;;;;;;4.07;1.57;;;;;;;;;;4957443;28;20305;-82
2022/07/06 11:36:26;;;;;;;3.90;1.60;;;;;;;;;;4957874;28;20314;-83
2022/07/06 11:38:57;;;;;;;3.13;1.33;;;;;;;;;;4958452;28;20242;-82
2022/07/06 11:41:27;;;;;;;3.33;1.20;;;;;;;;;;4959613;28;20723;-80
2022/07/06 11:43:55;;;;;;;4.03;1.40;;;;;;;;;;4958838;28;20234;-82
2022/07/06 11:46:23;;;;;;;4.83;1.30;;;;;;;;;;4958997;28;20198;-81
2022/07/06 11:48:50;;;;;;;3.73;1.40;;;;;;;;;;4954943;28;20203;-81
2022/07/06 11:51:18;;;;;;;5.87;1.60;;;;;;;;;;4958508;28;20272;-82
2022/07/06 11:53:48;;;;;;;2.10;1.23;;;;;;;;;;4956308;28;20290;-83
2022/07/06 11:56:18;;;;;;;3.50;1.57;;;;;;;;;;4957095;28;20219;-82
2022/07/06 11:58:47;;;;;;;6.70;1.30;;;;;;;;;;4957645;28;20238;-82
2022/07/06 12:01:15;;;;;;;2.60;1.27;;;;;;;;;;4956547;28;20214;-82
2022/07/06 12:03:50;;;;;;;2.87;1.10;;;;;;;;;;4958307;28;20292;-83
2022/07/06 12:06:19;;;;;;;6.90;1.17;;;;;;;;;;4961631;28;20213;-83
2022/07/06 12:08:48;;;;;;;2.63;1.23;;;;;;;;;;4956456;28;20222;-82
2022/07/06 12:11:20;;;;;;;2.63;1.37;;;;;;;;;;4960923;28;20252;-82
2022/07/06 12:13:49;;;;;;;4.23;1.33;;;;;;;;;;4961218;28;20380;-82
2022/07/06 12:16:16;;;;;;;2.87;1.40;;;;;;;;;;4960294;28;20241;-81
2022/07/06 12:18:44;;;;;;;3.57;1.27;;;;;;;;;;4961908;28;20270;-82
2022/07/06 12:24:00;;;;;;;3.20;1.47;;;;;;;;;;4956819;28;20239;-82
2022/07/06 12:26:29;;;;;;;3.53;1.30;;;;;;;;;;4954048;28;20202;-81
2022/07/06 12:29:07;;;;;;;2.93;1.33;;;;;;;;;;4958507;28;20207;-83
2022/07/06 12:31:36;;;;;;;4.17;1.30;;;;;;;;;;4957164;28;20221;-81
2022/07/06 12:34:03;;;;;;;4.20;1.40;;;;;;;;;;4959545;28;20309;-82
2022/07/06 12:36:31;;;;;;;3.50;1.30;;;;;;;;;;4961899;28;20288;-80
2022/07/06 12:38:58;;;;;;;3.00;1.20;;;;;;;;;;4963611;28;20289;-82
2022/07/06 12:41:27;;;;;;;5.43;1.23;;;;;;;;;;4963807;28;20210;-81
2022/07/06 12:44:01;;;;;;;9.97;1.40;;;;;;;;;;4957315;28;20234;-84
2022/07/06 12:46:30;;;;;;;6.00;1.40;;;;;;;;;;4963040;28;20209;-83
2022/07/06 12:48:59;;;;;;;2.43;1.20;;;;;;;;;;4958770;28;20226;-82
2022/07/06 12:51:27;;;;;;;1.63;0.97;;;;;;;;;;4959680;28;20219;-84
2022/07/06 12:53:54;;;;;;;4.80;1.60;;;;;;;;;;4954871;28;20234;-84
2022/07/06 12:56:23;;;;;;;3.07;1.33;;;;;;;;;;4961140;28;20230;-84
2022/07/06 12:58:57;;;;;;;3.43;1.30;;;;;;;;;;4957190;28;20202;-84
2022/07/06 13:01:33;;;;;;;1.40;1.00;;;;;;;;;;4955616;28;20213;-84
2022/07/06 13:04:03;;;;;;;3.03;1.20;;;;;;;;;;4957597;28;20230;-83
2022/07/06 13:06:32;;;;;;;2.33;1.00;;;;;;;;;;4959045;28;20206;-82
2022/07/06 13:09:03;;;;;;;2.10;1.20;;;;;;;;;;4958755;28;20222;-83
2022/07/06 13:14:36;;;;;;;1.50;1.00;;;;;;;;;;4934061;28;20986;-80
2022/07/06 13:17:17;;;;;;;5.43;1.43;;;;;;;;;;4954028;28;20273;-81
2022/07/06 13:19:46;;;;;;;7.03;1.33;;;;;;;;;;4945820;28;20221;-82
2022/07/06 13:22:14;;;;;;;2.60;1.00;;;;;;;;;;4957341;28;20234;-82
2022/07/06 13:24:41;;;;;;;5.63;1.40;;;;;;;;;;4962271;28;20222;-82
2022/07/06 13:27:09;;;;;;;6.13;1.93;;;;;;;;;;4967261;28;20620;-83
2022/07/06 13:29:36;;;;;;;3.03;1.50;;;;;;;;;;4957243;28;20207;-83
2022/07/06 13:32:07;;;;;;;4.07;1.40;;;;;;;;;;4962666;28;20296;-82
2022/07/06 13:34:35;;;;;;;8.20;1.60;;;;;;;;;;4960857;28;20230;-83
2022/07/06 13:37:04;;;;;;;2.53;1.20;;;;;;;;;;4964398;28;20253;-82
2022/07/06 13:39:32;;;;;;;5.20;1.10;;;;;;;;;;4960733;28;20270;-82
2022/07/06 13:41:59;;;;;;;2.87;1.20;;;;;;;;;;4959848;28;20202;-82
2022/07/06 13:44:30;;;;;;;6.03;1.80;;;;;;;;;;4960055;28;20261;-83
2022/07/06 13:46:57;;;;;;;8.63;1.70;;;;;;;;;;4961670;28;20210;-82
2022/07/06 13:49:31;;;;;;;2.17;1.10;;;;;;;;;;4950358;28;20278;-81
2022/07/06 13:52:03;;;;;;;2.77;1.10;;;;;;;;;;4952906;28;20849;-81
2022/07/06 13:54:32;;;;;;;2.97;1.40;;;;;;;;;;4956886;28;20318;-81
2022/07/06 13:57:00;;;;;;;2.57;1.30;;;;;;;;;;4961506;28;20230;-82
2022/07/06 13:59:29;;;;;;;3.23;1.13;;;;;;;;;;4958189;28;20214;-82
2022/07/06 14:04:48;;;;;;;2.60;1.20;;;;;;;;;;4947804;28;20202;-82
2022/07/06 14:07:15;;;;;;;5.70;1.10;;;;;;;;;;4957985;28;20229;-83
2022/07/06 14:09:44;;;;;;;2.27;1.00;;;;;;;;;;4957456;28;20222;-82
2022/07/06 14:12:12;;;;;;;4.53;1.63;;;;;;;;;;4961322;28;20222;-83
2022/07/06 14:14:39;;;;;;;8.47;1.30;;;;;;;;;;4966299;28;20233;-82
2022/07/06 14:17:06;;;;;;;2.30;1.23;;;;;;;;;;4962833;28;20826;-82
2022/07/06 14:19:37;;;;;;;4.33;1.60;;;;;;;;;;4968057;28;20210;-83
2022/07/06 14:22:04;;;;;;;7.97;1.50;;;;;;;;;;4961941;28;20224;-83
2022/07/06 14:24:32;;;;;;;7.17;1.30;;;;;;;;;;4960685;28;20234;-83
2022/07/06 14:27:11;;;;;;;6.47;1.57;;;;;;;;;;4967379;28;20261;-83
2022/07/06 14:29:39;;;;;;;3.60;1.33;;;;;;;;;;4967943;28;20201;-82
2022/07/06 14:32:06;;;;;;;2.63;1.70;;;;;;;;;;4961104;28;20234;-83
2022/07/06 14:34:33;;;;;;;5.37;1.83;;;;;;;;;;4963131;28;20619;-82
2022/07/06 14:37:01;;;;;;;6.33;2.07;;;;;;;;;;4962513;28;21494;-82
2022/07/06 14:39:32;;;;;;;3.67;1.80;;;;;;;;;;4958313;28;20202;-83
2022/07/06 14:41:59;;;;;;;3.37;1.90;;;;;;;;;;4961227;28;20213;-82
2022/07/06 14:44:31;;;;;;;5.73;1.70;;;;;;;;;;4965983;28;20222;-80
2022/07/06 14:46:59;;;;;;;6.47;1.90;;;;;;;;;;4958594;28;20278;-81
2022/07/06 14:49:28;;;;;;;3.83;2.27;;;;;;;;;;4959066;28;20198;-81
2022/07/06 14:51:57;;;;;;;6.10;1.90;;;;;;;;;;4955224;28;20202;-80
2022/07/06 14:54:24;;;;;;;4.57;1.70;;;;;;;;;;4952042;28;20230;-81
2022/07/06 14:56:52;;;;;;;4.60;2.10;;;;;;;;;;4961221;28;20246;-82
2022/07/06 14:59:20;;;;;;;3.40;1.60;;;;;;;;;;4962562;28;20214;-83
2022/07/06 15:01:49;;;;;;;4.00;1.83;;;;;;;;;;4963126;28;20213;-83
2022/07/06 15:04:17;;;;;;;5.67;2.30;;;;;;;;;;4956317;28;20218;-82
2022/07/06 15:07:24;;;;;;;;;;;;;;;;;;;;;
2022/07/06 15:09:52;;;;;;;2.93;1.70;;;;;;;;;;4960141;28;20285;-82
2022/07/06 15:12:20;;;;;;;3.93;1.53;;;;;;;;;;4962469;28;20220;-82
2022/07/06 15:14:47;;;;;;;5.03;1.80;;;;;;;;;;4960122;28;20251;-82
2022/07/06 15:17:16;;;;;;;15.83;1.80;;;;;;;;;;4962375;28;20226;-82